createdAt,value
2022-09-05T00:00:06.172Z,100339.22
2022-09-05T00:02:56.906Z,100322.75
2022-09-05T00:05:46.550Z,100332.28
2022-09-05T00:08:29.649Z,100324.47
2022-09-05T00:11:39.693Z,100326.22
2022-09-05T00:14:12.676Z,100332.25
2022-09-05T00:17:07.107Z,100321.81
2022-09-05T00:24:25.691Z,100323.56
2022-09-05T00:24:35.702Z,100326.16
2022-09-05T00:25:57.045Z,100325.25
2022-09-05T00:28:33.628Z,100331.31
2022-09-05T00:31:54.275Z,100329.56
2022-09-05T00:34:18.131Z,100322.63
2022-09-05T00:36:48.271Z,100320.88
2022-09-05T00:39:20.990Z,100307.84
2022-09-05T00:41:50.503Z,100315.66
2022-09-05T00:44:21.376Z,100313.88
2022-09-05T00:46:56.889Z,100312.09
2022-09-05T00:49:28.691Z,100319.88
2022-09-05T00:52:03.012Z,100322.47
2022-09-05T00:54:54.432Z,100325.94
2022-09-05T00:57:43.510Z,100324.16
2022-09-05T01:00:18.354Z,100319.78
2022-09-05T01:03:02.671Z,100315.47
2022-09-05T01:05:44.281Z,100318.94
2022-09-05T01:08:25.577Z,100309.41
2022-09-05T01:11:03.310Z,100303.34
2022-09-05T01:13:41.912Z,100296.41
2022-09-05T01:16:22.515Z,100299.84
2022-09-05T01:19:01.095Z,100298.06
2022-09-05T01:21:56.092Z,100304.13
2022-09-05T01:24:48.901Z,100301.47
2022-09-05T01:28:08.366Z,100296.28
2022-09-05T01:30:41.673Z,100297.97
2022-09-05T01:33:20.179Z,100297.97
2022-09-05T01:36:21.155Z,100296.22
2022-09-05T01:40:10.503Z,100297.94
2022-09-05T01:41:54.190Z,100303.09
2022-09-05T01:44:42.605Z,100304.88
2022-09-05T01:47:35.212Z,100301.44
2022-09-05T01:50:16.652Z,100290.19
2022-09-05T01:53:05.438Z,100301.41
2022-09-05T01:56:04.475Z,100301.38
2022-09-05T01:58:47.976Z,100300.50
2022-09-05T02:01:32.561Z,100298.72
2022-09-05T02:04:23.032Z,100293.50
2022-09-05T02:07:19.257Z,100291.75
2022-09-05T02:10:08.568Z,100286.53
2022-09-05T02:12:56.790Z,100294.28
2022-09-05T02:15:42.944Z,100287.31
2022-09-05T02:18:30.332Z,100288.19
2022-09-05T02:21:01.583Z,100296.84
2022-09-05T02:23:41.845Z,100301.16
2022-09-05T02:26:18.476Z,100293.31
2022-09-05T02:28:54.845Z,100295.91
2022-09-05T02:31:30.987Z,100307.16
2022-09-05T02:34:08.889Z,100308.03
2022-09-05T02:36:45.092Z,100301.06
2022-09-05T02:45:02.266Z,100311.47
2022-09-05T02:45:13.054Z,100302.84
2022-09-05T02:45:30.550Z,100301.97
2022-09-05T02:48:15.051Z,100307.16
2022-09-05T02:57:23.281Z,100297.66
2022-09-05T02:57:39.470Z,100297.66
2022-09-05T02:57:41.152Z,100299.38
2022-09-05T03:00:06.301Z,100296.78
2022-09-05T03:02:48.586Z,100301.03
2022-09-05T03:05:23.387Z,100302.75
2022-09-05T03:08:23.635Z,100288.88
2022-09-05T03:11:40.729Z,100302.69
2022-09-05T03:14:50.281Z,100312.09
2022-09-05T03:17:54.389Z,100299.06
2022-09-05T03:21:08.876Z,100301.66
2022-09-05T03:24:06.223Z,100303.34
2022-09-05T03:27:02.465Z,100296.38
2022-09-05T03:29:45.414Z,100297.25
2022-09-05T03:32:53.121Z,100295.53
2022-09-05T03:36:05.892Z,100296.38
2022-09-05T03:39:14.576Z,100295.44
2022-09-05T03:41:57.086Z,100298.88
2022-09-05T03:44:44.807Z,100293.59
2022-09-05T03:47:48.776Z,100293.59
2022-09-05T03:52:21.388Z,100295.31
2022-09-05T03:57:17.965Z,100290.13
2022-09-05T03:57:26.847Z,100291.00
2022-09-05T03:59:58.956Z,100293.53
2022-09-05T04:04:49.945Z,100290.09
2022-09-05T04:08:19.555Z,100290.09
2022-09-05T04:08:33.926Z,100291.81
2022-09-05T04:11:06.649Z,100288.34
2022-09-05T04:13:41.664Z,100290.94
2022-09-05T04:16:14.923Z,100291.81
2022-09-05T04:18:47.377Z,100296.13
2022-09-05T04:21:18.973Z,100295.22
2022-09-05T04:23:53.789Z,100303.00
2022-09-05T04:26:32.095Z,100300.44
2022-09-05T04:29:10.128Z,100294.41
2022-09-05T04:31:49.947Z,100301.38
2022-09-05T04:34:39.702Z,100305.75
2022-09-05T04:37:08.729Z,100303.22
2022-09-05T04:39:37.026Z,100294.59
2022-09-05T04:42:19.448Z,100296.34
2022-09-05T04:44:55.890Z,100296.38
2022-09-05T04:47:29.568Z,100310.25
2022-09-05T04:49:59.821Z,100303.28
2022-09-05T04:52:55.905Z,100309.34
2022-09-05T04:55:26.637Z,100306.78
2022-09-05T04:57:59.598Z,100311.19
2022-09-05T05:05:59.724Z,100311.22
2022-09-05T05:06:10.845Z,100315.59
2022-09-05T05:06:42.304Z,100318.28
2022-09-05T05:09:21.665Z,100325.19
2022-09-05T05:18:03.805Z,100322.69
2022-09-05T05:18:06.382Z,100331.41
2022-09-05T05:18:12.650Z,100333.16
2022-09-05T05:20:41.571Z,100335.84
2022-09-05T05:23:15.765Z,100342.81
2022-09-05T05:25:48.523Z,100335.91
2022-09-05T05:28:25.813Z,100340.25
2022-09-05T05:31:01.899Z,100348.03
2022-09-05T05:33:35.993Z,100351.53
2022-09-05T05:36:08.520Z,100354.16
2022-09-05T05:38:48.909Z,100352.47
2022-09-05T05:41:23.467Z,100363.81
2022-09-05T05:43:52.528Z,100362.13
2022-09-05T05:46:32.161Z,100365.66
2022-09-05T05:49:26.375Z,100366.59
2022-09-05T05:52:09.296Z,100367.53
2022-09-05T05:54:45.504Z,100371.97
2022-09-05T05:57:34.970Z,100370.25
2022-09-05T06:00:14.895Z,100371.13
2022-09-05T06:03:33.976Z,100374.66
2022-09-05T06:06:38.074Z,100378.19
2022-09-05T06:14:49.205Z,100379.13
2022-09-05T06:14:57.620Z,100373.13
2022-09-05T06:16:24.968Z,100378.41
2022-09-05T06:19:34.206Z,100385.34
2022-09-05T06:23:08.861Z,100394.09
2022-09-05T06:26:03.581Z,100392.38
2022-09-05T06:28:41.314Z,100386.34
2022-09-05T06:31:29.840Z,100385.47
2022-09-05T06:34:33.435Z,100392.41
2022-09-05T06:37:11.552Z,100395.91
2022-09-05T06:39:58.458Z,100394.13
2022-09-05T06:42:43.656Z,100392.41
2022-09-05T06:45:27.736Z,100388.03
2022-09-05T06:48:10.338Z,100399.38
2022-09-05T06:51:08.450Z,100397.66
2022-09-05T06:54:01.236Z,100397.63
2022-09-05T06:56:45.411Z,100402.81
2022-09-05T06:59:43.832Z,100394.09
2022-09-05T07:02:56.649Z,100400.13
2022-09-05T07:05:38.411Z,100398.38
2022-09-05T07:08:34.156Z,100397.44
2022-09-05T07:11:11.322Z,100403.50
2022-09-05T07:14:04.366Z,100406.06
2022-09-05T07:16:42.264Z,100406.91
2022-09-05T07:19:26.622Z,100411.16
2022-09-05T07:22:47.645Z,100404.13
2022-09-05T07:25:10.236Z,100410.13
2022-09-05T07:28:26.475Z,100402.28
2022-09-05T07:30:34.742Z,100412.66
2022-09-05T07:33:04.800Z,100412.63
2022-09-05T07:35:42.254Z,100409.13
2022-09-05T07:38:15.864Z,100416.84
2022-09-05T07:40:51.625Z,100419.41
2022-09-05T07:43:23.762Z,100415.94
2022-09-05T07:46:06.138Z,100422.88
2022-09-05T07:48:37.731Z,100420.22
2022-09-05T07:56:54.863Z,100428.06
2022-09-05T07:56:55.104Z,100419.41
2022-09-05T07:57:31.273Z,100427.75
2022-09-05T07:59:42.562Z,100424.03
2022-09-05T08:02:13.638Z,100420.38
2022-09-05T08:04:42.664Z,100429.03
2022-09-05T08:07:47.117Z,100428.88
2022-09-05T08:10:10.055Z,100427.22
2022-09-05T08:13:00.621Z,100420.13
2022-09-05T08:16:06.681Z,100424.44
2022-09-05T08:18:24.863Z,100425.31
2022-09-05T08:20:56.951Z,100420.97
2022-09-05T08:23:48.828Z,100424.44
2022-09-05T08:26:28.429Z,100417.38
2022-09-05T08:29:02.767Z,100427.78
2022-09-05T08:31:38.542Z,100430.34
2022-09-05T08:34:18.259Z,100424.19
2022-09-05T08:36:56.053Z,100431.13
2022-09-05T08:39:26.973Z,100426.66
2022-09-05T08:42:09.277Z,100422.28
2022-09-05T08:46:47.153Z,100427.44
2022-09-05T08:47:45.098Z,100423.00
2022-09-05T08:50:38.361Z,100423.84
2022-09-05T08:53:26.790Z,100419.28
2022-09-05T08:56:10.901Z,100418.28
2022-09-05T08:59:31.556Z,100426.00
2022-09-05T09:02:45.348Z,100430.31
2022-09-05T09:05:01.473Z,100418.81
2022-09-05T09:07:51.259Z,100429.09
2022-09-05T09:10:43.596Z,100423.69
2022-09-05T09:13:29.141Z,100430.41
2022-09-05T09:16:06.303Z,100419.53
2022-09-05T09:18:46.570Z,100412.25
2022-09-05T09:21:25.268Z,100413.66
2022-09-05T09:24:01.728Z,100409.91
2022-09-05T09:26:34.032Z,100409.59
2022-09-05T09:29:06.856Z,100398.78
2022-09-05T09:32:02.307Z,100403.78
2022-09-05T09:34:47.350Z,100408.19
2022-09-05T09:37:50.406Z,100414.91
2022-09-05T09:40:36.597Z,100401.56
2022-09-05T09:43:09.187Z,100406.41
2022-09-05T09:45:53.214Z,100406.06
2022-09-05T09:48:56.837Z,100412.03
2022-09-05T09:51:57.627Z,100405.03
2022-09-05T09:54:56.319Z,100399.94
2022-09-05T09:57:57.161Z,100398.81
2022-09-05T10:00:25.816Z,100385.09
2022-09-05T10:09:07.988Z,100383.28
2022-09-05T10:10:45.887Z,100384.78
2022-09-05T10:10:45.888Z,100388.66
2022-09-05T10:13:21.797Z,100375.50
2022-09-05T10:16:29.689Z,100366.22
2022-09-05T10:22:50.741Z,100363.22
2022-09-05T10:25:30.102Z,100365.06
2022-09-05T10:28:06.377Z,100368.44
2022-09-05T10:32:32.637Z,100360.91
2022-09-05T10:35:13.750Z,100365.84
2022-09-05T10:36:29.202Z,100352.09
2022-09-05T10:39:06.848Z,100352.47
2022-09-05T10:41:49.858Z,100348.38
2022-09-05T10:44:25.681Z,100346.19
2022-09-05T10:47:06.135Z,100336.00
2022-09-05T10:49:38.641Z,100331.47
2022-09-05T10:52:18.890Z,100333.22
2022-09-05T10:55:18.272Z,100326.38
2022-09-05T10:58:00.873Z,100322.97
2022-09-05T11:02:22.648Z,100322.75
2022-09-05T11:03:46.550Z,100321.72
2022-09-05T11:06:24.625Z,100316.09
2022-09-05T11:09:02.951Z,100313.34
2022-09-05T11:11:41.137Z,100316.09
2022-09-05T11:14:32.532Z,100317.81
2022-09-05T11:17:10.780Z,100317.66
2022-09-05T11:19:43.775Z,100313.44
2022-09-05T11:22:23.468Z,100320.19
2022-09-05T11:24:56.041Z,100309.94
2022-09-05T11:27:32.293Z,100311.84
2022-09-05T11:30:05.290Z,100302.63
2022-09-05T11:39:45.536Z,100306.47
2022-09-05T11:39:52.236Z,100303.06
2022-09-05T11:39:53.547Z,100304.78
2022-09-05T11:42:23.859Z,100302.78
2022-09-05T11:45:14.480Z,100300.00
2022-09-05T11:48:22.754Z,100299.91
2022-09-05T11:51:33.684Z,100290.72
2022-09-05T11:54:44.859Z,100290.91
2022-09-05T11:57:33.346Z,100281.03
2022-09-05T12:00:30.579Z,100282.53
2022-09-05T12:03:08.880Z,100285.03
2022-09-05T12:06:00.113Z,100272.03
2022-09-05T12:08:39.517Z,100267.19
2022-09-05T12:11:22.969Z,100267.94
2022-09-05T12:14:01.090Z,100258.09
2022-09-05T12:16:57.767Z,100258.91
2022-09-05T12:19:34.819Z,100255.69
2022-09-05T12:22:23.613Z,100256.94
2022-09-05T12:25:26.026Z,100252.78
2022-09-05T12:28:02.307Z,100249.16
2022-09-05T12:31:28.314Z,100240.69
2022-09-05T12:36:02.626Z,100238.81
2022-09-05T12:40:43.194Z,100227.31
2022-09-05T12:40:53.918Z,100232.66
2022-09-05T12:42:37.269Z,100231.97
2022-09-05T12:45:20.781Z,100227.53
2022-09-05T12:48:04.883Z,100230.22
2022-09-05T12:50:40.562Z,100225.94
2022-09-05T12:53:12.285Z,100219.78
2022-09-05T12:55:52.143Z,100217.19
2022-09-05T13:03:03.264Z,100203.75
2022-09-05T13:03:09.167Z,100205.50
2022-09-05T13:04:29.753Z,100201.16
2022-09-05T13:07:01.450Z,100200.88
2022-09-05T13:10:04.711Z,100196.47
2022-09-05T13:15:03.006Z,100201.31
2022-09-05T13:15:25.531Z,100198.81
2022-09-05T13:18:00.336Z,100201.94
2022-09-05T13:20:34.086Z,100184.97
2022-09-05T13:23:07.031Z,100180.66
2022-09-05T13:25:37.085Z,100177.41
2022-09-05T13:28:08.436Z,100171.78
2022-09-05T13:32:37.572Z,100176.88
2022-09-05T13:38:17.482Z,100171.59
2022-09-05T13:38:21.155Z,100173.84
2022-09-05T13:39:28.156Z,100172.25
2022-09-05T13:41:59.337Z,100167.97
2022-09-05T13:44:29.960Z,100164.25
2022-09-05T13:47:02.517Z,100159.34
2022-09-05T13:49:44.743Z,100160.88
2022-09-05T13:52:27.910Z,100162.16
2022-09-05T13:55:12.843Z,100160.81
2022-09-05T13:57:45.803Z,100154.22
2022-09-05T14:00:30.012Z,100150.13
2022-09-05T14:03:38.344Z,100143.97
2022-09-05T14:06:46.414Z,100137.97
2022-09-05T14:09:35.828Z,100141.69
2022-09-05T14:12:15.558Z,100147.78
2022-09-05T14:17:58.407Z,100139.63
2022-09-05T14:20:49.539Z,100135.06
2022-09-05T14:23:19.636Z,100129.59
2022-09-05T14:25:53.331Z,100132.63
2022-09-05T14:28:27.748Z,100124.44
2022-09-05T14:35:47.023Z,100126.41
2022-09-05T14:37:42.859Z,100115.31
2022-09-05T14:37:44.972Z,100120.50
2022-09-05T14:40:49.728Z,100119.25
2022-09-05T14:43:34.108Z,100110.38
2022-09-05T14:46:17.458Z,100110.41
2022-09-05T14:49:10.723Z,100115.03
2022-09-05T14:51:46.660Z,100109.91
2022-09-05T15:02:38.919Z,100090.16
2022-09-05T15:02:49.757Z,100090.88
2022-09-05T15:03:03.569Z,100090.59
2022-09-05T15:05:41.651Z,100092.47
2022-09-05T15:09:01.011Z,100084.63
2022-09-05T15:12:22.947Z,100089.13
2022-09-05T15:13:57.997Z,100083.63
2022-09-05T15:16:26.652Z,100077.91
2022-09-05T15:18:56.133Z,100082.00
2022-09-05T15:21:33.728Z,100081.34
2022-09-05T15:24:13.682Z,100071.59
2022-09-05T15:26:53.173Z,100067.91
2022-09-05T15:29:24.420Z,100063.97
2022-09-05T15:31:59.389Z,100068.50
2022-09-05T15:34:38.473Z,100063.13
2022-09-05T15:37:22.896Z,100056.41
2022-09-05T15:40:01.671Z,100059.50
2022-09-05T15:42:33.349Z,100055.63
2022-09-05T15:45:17.029Z,100059.56
2022-09-05T15:47:51.056Z,100045.88
2022-09-05T15:50:22.569Z,100047.63
2022-09-05T15:52:55.523Z,100033.50
2022-09-05T15:55:26.288Z,100035.88
2022-09-05T15:57:58.852Z,100037.84
2022-09-05T16:00:39.892Z,100034.41
2022-09-05T16:04:53.005Z,100038.00
2022-09-05T16:10:29.588Z,100031.56
2022-09-05T16:10:39.493Z,100028.16
2022-09-05T16:12:14.236Z,100020.50
2022-09-05T16:14:40.616Z,100026.41
2022-09-05T16:23:14.996Z,100025.09
2022-09-05T16:23:18.642Z,100017.81
2022-09-05T16:23:40.439Z,100019.56
2022-09-05T16:26:10.977Z,100013.03
2022-09-05T16:28:44.080Z,100009.97
2022-09-05T16:31:18.801Z,100011.94
2022-09-05T16:33:48.361Z,100004.72
2022-09-05T16:36:20.063Z,100011.13
2022-09-05T16:38:54.004Z,100016.38
2022-09-05T16:41:30.902Z,100012.03
2022-09-05T16:44:04.756Z,100020.91
2022-09-05T16:46:39.644Z,100009.41
2022-09-05T16:49:13.288Z,100017.91
2022-09-05T16:51:44.999Z,100008.88
2022-09-05T16:54:18.486Z,100004.72
2022-09-05T16:56:48.901Z,100011.97
2022-09-05T16:59:20.932Z,100014.53
2022-09-05T17:02:09.145Z,100006.97
2022-09-05T17:05:05.123Z,100004.00
2022-09-05T17:07:58.419Z,100002.53
2022-09-05T17:10:28.578Z,100004.22
2022-09-05T17:12:57.351Z,100002.47
2022-09-05T17:15:28.568Z,99994.84
2022-09-05T17:18:22.367Z,99997.78
2022-09-05T17:20:54.560Z,99996.06
2022-09-05T17:29:20.922Z,99997.66
2022-09-05T17:29:49.404Z,99998.06
2022-09-05T17:32:42.499Z,99994.59
2022-09-05T17:35:42.354Z,99995.91
2022-09-05T17:38:43.712Z,100001.84
2022-09-05T17:41:52.632Z,99988.25
2022-09-05T17:44:26.094Z,99986.31
2022-09-05T17:47:14.665Z,99993.06
2022-09-05T17:49:45.053Z,99999.34
2022-09-05T17:52:24.372Z,99995.09
2022-09-05T17:54:56.385Z,100002.50
2022-09-05T17:57:40.057Z,100006.19
2022-09-05T18:00:50.494Z,100007.56
2022-09-05T18:04:11.344Z,100008.63
2022-09-05T18:07:00.474Z,100003.22
2022-09-05T18:10:05.973Z,100008.03
2022-09-05T18:13:31.252Z,100001.06
2022-09-05T18:16:10.367Z,100006.19
2022-09-05T18:19:29.054Z,100011.16
2022-09-05T18:21:48.335Z,100014.13
2022-09-05T18:27:37.878Z,100017.00
2022-09-05T18:30:13.001Z,100013.19
2022-09-05T18:32:45.483Z,100019.47
2022-09-05T18:35:37.201Z,100023.41
2022-09-05T18:38:38.763Z,100025.88
2022-09-05T18:41:22.078Z,100022.22
2022-09-05T18:44:12.598Z,100037.66
2022-09-05T18:46:46.294Z,100039.69
2022-09-05T18:50:15.805Z,100045.16
2022-09-05T18:52:14.131Z,100052.91
2022-09-05T18:54:44.785Z,100057.16
2022-09-05T18:57:31.021Z,100050.16
2022-09-05T19:00:10.303Z,100049.56
2022-09-05T19:02:58.642Z,100049.81
2022-09-05T19:05:46.125Z,100046.56
2022-09-05T19:08:26.802Z,100049.44
2022-09-05T19:10:59.575Z,100049.59
2022-09-05T19:13:32.257Z,100053.38
2022-09-05T19:16:18.487Z,100042.28
2022-09-05T19:19:16.446Z,100047.75
2022-09-05T19:21:56.271Z,100054.91
2022-09-05T19:24:44.687Z,100057.00
2022-09-05T19:29:42.418Z,100048.38
2022-09-05T19:37:08.359Z,100042.97
2022-09-05T19:37:09.251Z,100050.41
2022-09-05T19:37:10.873Z,100040.97
2022-09-05T19:40:22.513Z,100039.69
2022-09-05T19:47:27.006Z,100031.94
2022-09-05T19:47:55.889Z,100040.81
2022-09-05T19:47:56.351Z,100033.78
2022-09-05T19:50:11.268Z,100026.88
2022-09-05T19:52:40.103Z,100035.72
2022-09-05T19:55:20.303Z,100027.09
2022-09-05T19:57:56.963Z,100029.81
2022-09-05T20:00:39.958Z,100037.78
2022-09-05T20:03:07.705Z,100036.16
2022-09-05T20:05:39.909Z,100031.00
2022-09-05T20:08:13.156Z,100018.09
2022-09-05T20:10:41.735Z,100019.09
2022-09-05T20:13:23.255Z,100020.84
2022-09-05T20:15:52.271Z,100014.84
2022-09-05T20:18:22.677Z,100018.56
2022-09-05T20:20:54.397Z,100011.69
2022-09-05T20:23:25.232Z,100016.16
2022-09-05T20:25:55.464Z,100019.88
2022-09-05T20:28:25.620Z,100028.63
2022-09-05T20:30:55.612Z,100025.22
2022-09-05T20:33:28.719Z,100022.69
2022-09-05T20:43:14.374Z,100019.28
2022-09-05T20:43:19.457Z,100016.72
2022-09-05T20:43:21.749Z,100018.59
2022-09-05T20:44:39.711Z,100025.69
2022-09-05T20:52:13.843Z,100017.91
2022-09-05T20:54:21.144Z,100014.50
2022-09-05T20:54:21.730Z,100021.63
2022-09-05T20:55:42.013Z,100024.31
2022-09-05T20:58:12.701Z,100014.00
2022-09-05T21:01:19.666Z,100022.88
2022-09-05T21:03:40.673Z,100026.50
2022-09-05T21:06:21.868Z,100030.06
2022-09-05T21:08:52.623Z,100024.06
2022-09-05T21:11:30.383Z,100030.19
2022-09-05T21:14:01.980Z,100030.28
2022-09-05T21:16:32.676Z,100035.63
2022-09-05T21:19:00.595Z,100027.00
2022-09-05T21:21:30.446Z,100028.78
2022-09-05T21:24:17.956Z,100021.03
2022-09-05T21:26:48.840Z,100018.50
2022-09-05T21:29:23.422Z,100015.03
2022-09-05T21:32:00.106Z,100022.97
2022-09-05T21:34:32.136Z,100020.31
2022-09-05T21:37:06.447Z,100013.31
2022-09-05T21:39:39.950Z,100011.59
2022-09-05T21:42:44.263Z,100013.47
2022-09-05T21:47:44.821Z,100009.19
2022-09-05T21:47:53.054Z,100013.59
2022-09-05T21:50:31.599Z,100012.75
2022-09-05T21:54:50.332Z,100015.34
2022-09-05T21:59:24.826Z,100004.97
2022-09-05T21:59:33.206Z,100017.13
2022-09-05T22:01:51.754Z,100005.00
2022-09-05T22:04:17.412Z,100006.81
2022-09-05T22:06:48.537Z,100010.31
2022-09-05T22:09:17.191Z,100016.47
2022-09-05T22:11:50.242Z,100012.09
2022-09-05T22:14:18.854Z,100005.09
2022-09-05T22:16:47.315Z,100012.19
2022-09-05T22:19:17.648Z,100005.28
2022-09-05T22:21:45.561Z,100010.59
2022-09-05T22:24:14.000Z,100002.84
2022-09-05T22:27:01.266Z,99995.94
2022-09-05T22:29:35.317Z,100000.41
2022-09-05T22:32:03.967Z,100005.75
2022-09-05T22:34:31.673Z,100002.22
2022-09-05T22:36:59.316Z,100006.47
2022-09-05T22:39:36.490Z,99995.09
2022-09-05T22:42:10.407Z,99989.88
2022-09-05T22:44:40.420Z,99994.22
2022-09-05T22:47:08.603Z,99994.25
2022-09-05T22:49:37.045Z,99991.69
2022-09-05T22:52:05.636Z,99995.19
2022-09-05T22:54:33.422Z,99992.50
2022-09-05T22:57:01.164Z,99986.44
2022-09-05T22:59:28.767Z,99982.06
2022-09-05T23:01:57.812Z,99977.72
2022-09-05T23:04:25.815Z,99974.22
2022-09-05T23:06:53.610Z,99976.03
2022-09-05T23:09:21.345Z,99979.53
2022-09-05T23:11:49.141Z,99986.47
2022-09-05T23:14:16.729Z,99980.44
2022-09-05T23:16:44.338Z,99976.94
2022-09-05T23:19:13.282Z,99987.41
2022-09-05T23:21:40.881Z,99982.16
2022-09-05T23:24:08.615Z,99980.41
2022-09-05T23:26:36.208Z,99983.03
2022-09-05T23:29:03.829Z,99977.81
2022-09-05T23:31:31.552Z,99979.56
2022-09-05T23:33:59.232Z,99980.50
2022-09-05T23:36:28.196Z,99970.94
2022-09-05T23:38:56.103Z,99975.28
2022-09-05T23:41:23.719Z,99967.50
2022-09-05T23:43:51.350Z,99974.50
2022-09-05T23:46:19.079Z,99968.47
2022-09-05T23:48:46.844Z,99965.94
2022-09-05T23:51:14.501Z,99945.09
2022-09-05T23:53:44.124Z,99948.66
2022-09-05T23:56:12.169Z,99948.69
2022-09-05T23:58:40.192Z,99947.00
